Terminal Aerodrome Forecast
Issued by NWS

Home | Current Version | Previous Version | Text Only | Print | Product List | Glossary On
Versions: 1 2 3 4 5 6 7 8 9 10 11 12 13 14 15 16 17 18 19 20 21 22 23 24 25 26
000
FTUS46 KMTR 282100 AAA
TAFSFO
TAF AMD
KSFO 282105Z 2821/2924 30015KT P6SM SCT200
     FM290400 30009KT P6SM FEW010 SCT200
     FM291000 29004KT P6SM SCT008 SCT200
     FM291800 29009KT P6SM FEW012 BKN200=

USA.gov is the U.S. government's official web portal to all federal, state and local government web resources and services.